Flight Track Log - Related Links

Times and Time Zones

All times are in EST time to prevent confusion due to time zone crossing. See the AWI3962 flight status page for this flight to view local times or setup timezone preferences in your user account.

Time Position Orientation Groundspeed Altitude Reporting Facility
EST Latitude Longitude Course Direction KTS MPH feet Rate Location/Type
Tue 05:28:49 PM 42.6917 -73.8469 253° West 209 241 3,800  Level Boston Center
Tue 05:29:01 PM 42.6892 -73.8578 253° West 207 238 4,400 3,123 Climbing Boston Center
Tue 05:30:02 PM 42.6553 -73.9331 239° Southwest 217 250 7,600 2,777 Climbing Boston Center
Tue 05:31:02 PM 42.6225 -74.0028 237° Southwest 220 253 10,000 2,115 Climbing Boston Center
Tue 05:32:04 PM 42.5869 -74.0783 237° Southwest 235 270 11,900 1,805 Climbing Boston Center
Tue 05:33:05 PM 42.5483 -74.1650 239° Southwest 267 307 13,700 1,869 Climbing Boston Center
Tue 05:34:06 PM 42.5039 -74.2625 238° Southwest 280 322 15,700 1,113 Climbing Boston Center
Tue 05:35:09 PM 42.4592 -74.3589 238° Southwest 301 346 16,000 145 Climbing Boston Center
Tue 05:36:10 PM 42.4133 -74.4578 238° Southwest 308 354 16,000  Level Boston Center
Tue 05:37:11 PM 42.3667 -74.5572 238° Southwest 311 358 16,000 -49 Level Boston Center
Tue 05:38:12 PM 42.3103 -74.6486 230° Southwest 313 360 15,900 -49 Descending Boston Center
Tue 05:39:13 PM 42.2472 -74.7372 226° Southwest 321 369 15,900 48 Level Boston Center
Tue 05:40:16 PM 42.1858 -74.8236 226° Southwest 321 369 16,000 49 Climbing Boston Center
Tue 05:41:16 PM 42.1253 -74.9092 226° Southwest 319 367 16,000  Level Boston Center
Tue 05:42:18 PM 42.0639 -74.9964 227° Southwest 319 367 16,000 49 Level Boston Center
Tue 05:43:18 PM 41.9911 -75.0942 225° Southwest 319 367 16,100 50 Climbing Boston Center
Tue 05:44:18 PM 41.9283 -75.1639 220° Southwest 319 367 16,100 -57 Level Boston Center
Tue 05:45:04 PM 41.8694 -75.2133 212° Southwest 328 377 16,000 -57 Descending New York Center
Tue 05:46:04 PM 41.7922 -75.2750 211° Southwest 328 377 16,000  Level New York Center
Tue 05:47:04 PM 41.7083 -75.3444 212° Southwest 328 377 16,000 -400 Level New York Center
Tue 05:48:04 PM 41.6289 -75.4056 210° Southwest 328 377 15,200 -1,150 Descending New York Center
Tue 05:49:04 PM 41.5536 -75.4669 211° Southwest 323 372 13,700 -1,450 Descending New York Center
Tue 05:50:04 PM 41.4869 -75.5203 211° Southwest 323 372 12,300 -900 Descending New York Center
Tue 05:51:04 PM 41.4139 -75.5761 210° Southwest 317 365 11,900 -200 Descending New York Center
Tue 05:52:04 PM 41.3342 -75.6422 212° Southwest 317 365 11,900  Level New York Center
Tue 05:53:04 PM 41.2531 -75.6886 203° Southwest 317 365 11,900 -200 Level New York Center
Tue 05:54:04 PM 41.1681 -75.6769 174° South 304 350 11,500 -650 Descending New York Center
Tue 05:55:04 PM 41.0922 -75.6494 165° South 310 357 10,600 -750 Descending New York Center
Tue 05:56:04 PM 40.9994 -75.6208 167° South 311 358 10,000 -300 Descending New York Center
Tue 05:57:04 PM 40.9172 -75.5931 166° South 301 346 10,000  Level New York Center
Tue 05:58:04 PM 40.8372 -75.5653 165° South 301 346 10,000  Level New York Center
Tue 05:59:04 PM 40.7653 -75.5411 166° South 301 346 10,000  Level New York Center
Tue 06:00:04 PM 40.6750 -75.5075 164° South 301 346 10,000  Level New York Center
Tue 06:01:04 PM 40.5947 -75.4828 167° South 301 346 10,000  Level New York Center
Tue 06:02:04 PM 40.5144 -75.4556 166° South 301 346 10,000  Level New York Center
Tue 06:03:04 PM 40.4403 -75.4314 166° South 301 346 10,000 -800 Level New York Center
Tue 06:04:04 PM 40.3656 -75.4236 175° South 267 307 8,400 -1,500 Descending New York Center
Tue 06:05:04 PM 40.2972 -75.4164 175° South 248 285 7,000 -1,450 Descending New York Center
Tue 06:06:04 PM 40.2331 -75.4067 173° South 248 285 5,500 -1,450 Descending New York Center
Tue 06:07:04 PM 40.1756 -75.3836 163° South 248 285 4,100 -900 Descending New York Center
Tue 06:08:04 PM 40.1142 -75.3525 159° South 224 258 3,700 -625 Descending New York Center
Tue 06:08:40 PM 40.0833 -75.3333 155° Southeast 176 203 3,100 -438 Descending Philadelphia TRACON
Tue 06:09:40 PM 40.0500 -75.3167 159° South 154 177 3,000 -190 Descending Philadelphia TRACON
Tue 06:10:46 PM 40.0167 -75.3000 159° South 124 143 2,700 -429 Descending Philadelphia TRACON
Tue 06:11:46 PM 39.9833 -75.2833 159° South 124 143 2,100 -650 Descending Philadelphia TRACON
Tue 06:12:46 PM 39.9500 -75.2667 159° South 112 129 1,400 -700 Descending Philadelphia TRACON
Tue 06:13:46 PM 39.9167 -75.2500 159° South 142 163 700 -700 Descending Philadelphia TRACON

Login

Don't have an account? Register now (free) for customized features, flight alerts, and more!